Terminal Aerodrome Forecast
Issued by NWS Los Angeles, CA

Home | Current Version | Previous Version | Text Only | Print | Product List | Glossary On
Versions: 1 2 3 4 5 6 7 8 9 10 11 12 13 14 15 16 17 18 19 20 21 22 23 24 25
000
FTUS46 KLOX 142300 RRA
TAFSMX
TAF
KSMX 142345Z 1500/1524 31012KT P6SM FEW100
     FM150300 30006KT P6SM SKC
     FM150500 VRB03KT 4SM BR BKN004
     FM151000 00000KT 1/4SM FG VV001
     FM151500 VRB03KT 4SM BR BKN004
     FM151600 30006KT P6SM FEW005
     FM152000 30012G18KT P6SM FEW100=

USA.gov is the U.S. government's official web portal to all federal, state and local government web resources and services.